sensor_id;sensor_type;location;lat;lon;timestamp;P1;durP1;ratioP1;P2;durP2;ratioP2
12762;SDS011;6445;52.490;13.378;2022-09-29T00:00:22;9.77;;;7.15;;
12762;SDS011;6445;52.490;13.378;2022-09-29T00:02:48;8.98;;;6.95;;
12762;SDS011;6445;52.490;13.378;2022-09-29T00:05:13;11.45;;;8.10;;
12762;SDS011;6445;52.490;13.378;2022-09-29T00:07:38;9.60;;;7.32;;
12762;SDS011;6445;52.490;13.378;2022-09-29T00:10:03;9.88;;;6.88;;
12762;SDS011;6445;52.490;13.378;2022-09-29T00:12:29;10.82;;;7.93;;
12762;SDS011;6445;52.490;13.378;2022-09-29T00:14:54;11.27;;;7.35;;
12762;SDS011;6445;52.490;13.378;2022-09-29T00:17:19;12.48;;;7.82;;
12762;SDS011;6445;52.490;13.378;2022-09-29T00:19:45;10.93;;;7.68;;
12762;SDS011;6445;52.490;13.378;2022-09-29T00:22:10;10.75;;;7.88;;
12762;SDS011;6445;52.490;13.378;2022-09-29T00:24:35;9.48;;;7.55;;
12762;SDS011;6445;52.490;13.378;2022-09-29T00:27:01;10.15;;;7.85;;
12762;SDS011;6445;52.490;13.378;2022-09-29T00:29:26;10.98;;;7.75;;
12762;SDS011;6445;52.490;13.378;2022-09-29T00:31:52;10.05;;;7.53;;
12762;SDS011;6445;52.490;13.378;2022-09-29T00:34:17;10.48;;;7.82;;
12762;SDS011;6445;52.490;13.378;2022-09-29T00:36:43;10.85;;;8.00;;
12762;SDS011;6445;52.490;13.378;2022-09-29T00:39:08;10.73;;;7.20;;
12762;SDS011;6445;52.490;13.378;2022-09-29T00:41:35;10.15;;;7.68;;
12762;SDS011;6445;52.490;13.378;2022-09-29T00:44:02;9.90;;;7.40;;
12762;SDS011;6445;52.490;13.378;2022-09-29T00:48:58;13.45;;;8.38;;
12762;SDS011;6445;52.490;13.378;2022-09-29T00:51:28;10.60;;;8.40;;
12762;SDS011;6445;52.490;13.378;2022-09-29T00:53:55;10.68;;;7.85;;
12762;SDS011;6445;52.490;13.378;2022-09-29T00:56:22;11.60;;;7.93;;
12762;SDS011;6445;52.490;13.378;2022-09-29T00:58:49;8.98;;;7.22;;
12762;SDS011;6445;52.490;13.378;2022-09-29T01:01:18;10.88;;;7.82;;
12762;SDS011;6445;52.490;13.378;2022-09-29T01:03:47;9.90;;;7.97;;
12762;SDS011;6445;52.490;13.378;2022-09-29T01:06:24;11.32;;;7.80;;
12762;SDS011;6445;52.490;13.378;2022-09-29T01:09:01;10.32;;;7.63;;
12762;SDS011;6445;52.490;13.378;2022-09-29T01:11:29;10.82;;;7.38;;
12762;SDS011;6445;52.490;13.378;2022-09-29T01:13:55;10.57;;;7.47;;
12762;SDS011;6445;52.490;13.378;2022-09-29T01:16:25;10.45;;;7.88;;
12762;SDS011;6445;52.490;13.378;2022-09-29T01:18:50;9.65;;;7.18;;
12762;SDS011;6445;52.490;13.378;2022-09-29T01:24:15;10.10;;;7.85;;
12762;SDS011;6445;52.490;13.378;2022-09-29T01:27:18;10.73;;;8.07;;
12762;SDS011;6445;52.490;13.378;2022-09-29T01:29:52;9.85;;;7.82;;
12762;SDS011;6445;52.490;13.378;2022-09-29T01:32:28;11.15;;;8.07;;
12762;SDS011;6445;52.490;13.378;2022-09-29T01:35:15;11.55;;;8.45;;
12762;SDS011;6445;52.490;13.378;2022-09-29T01:40:57;11.80;;;8.27;;
12762;SDS011;6445;52.490;13.378;2022-09-29T01:43:45;11.70;;;8.65;;
12762;SDS011;6445;52.490;13.378;2022-09-29T01:49:08;12.00;;;8.82;;
12762;SDS011;6445;52.490;13.378;2022-09-29T01:54:29;13.43;;;8.32;;
12762;SDS011;6445;52.490;13.378;2022-09-29T01:57:03;12.85;;;9.10;;
12762;SDS011;6445;52.490;13.378;2022-09-29T01:59:39;11.93;;;9.35;;
12762;SDS011;6445;52.490;13.378;2022-09-29T02:02:11;14.52;;;9.73;;
12762;SDS011;6445;52.490;13.378;2022-09-29T02:04:45;12.68;;;9.45;;
12762;SDS011;6445;52.490;13.378;2022-09-29T02:07:21;14.88;;;9.38;;
12762;SDS011;6445;52.490;13.378;2022-09-29T02:09:55;13.30;;;9.50;;
12762;SDS011;6445;52.490;13.378;2022-09-29T02:12:26;12.95;;;9.82;;
12762;SDS011;6445;52.490;13.378;2022-09-29T02:14:56;12.25;;;9.35;;
12762;SDS011;6445;52.490;13.378;2022-09-29T02:17:25;12.73;;;9.23;;
12762;SDS011;6445;52.490;13.378;2022-09-29T02:19:55;16.05;;;9.13;;
12762;SDS011;6445;52.490;13.378;2022-09-29T02:22:20;11.80;;;9.48;;
12762;SDS011;6445;52.490;13.378;2022-09-29T02:24:46;13.63;;;9.40;;
12762;SDS011;6445;52.490;13.378;2022-09-29T02:27:13;15.02;;;9.98;;
12762;SDS011;6445;52.490;13.378;2022-09-29T02:29:38;14.52;;;9.75;;
12762;SDS011;6445;52.490;13.378;2022-09-29T02:32:05;13.27;;;9.73;;
12762;SDS011;6445;52.490;13.378;2022-09-29T02:34:34;13.30;;;9.73;;
12762;SDS011;6445;52.490;13.378;2022-09-29T02:39:53;14.27;;;10.23;;
12762;SDS011;6445;52.490;13.378;2022-09-29T02:45:29;14.95;;;10.25;;
12762;SDS011;6445;52.490;13.378;2022-09-29T02:48:17;17.45;;;11.15;;
12762;SDS011;6445;52.490;13.378;2022-09-29T02:51:35;16.30;;;10.88;;
12762;SDS011;6445;52.490;13.378;2022-09-29T02:56:46;15.77;;;10.50;;
12762;SDS011;6445;52.490;13.378;2022-09-29T02:59:25;14.85;;;10.98;;
12762;SDS011;6445;52.490;13.378;2022-09-29T03:01:55;14.48;;;10.82;;
12762;SDS011;6445;52.490;13.378;2022-09-29T03:04:23;15.38;;;10.60;;
12762;SDS011;6445;52.490;13.378;2022-09-29T03:06:50;14.65;;;10.30;;
12762;SDS011;6445;52.490;13.378;2022-09-29T03:09:16;15.38;;;10.80;;
12762;SDS011;6445;52.490;13.378;2022-09-29T03:11:41;16.83;;;10.65;;
12762;SDS011;6445;52.490;13.378;2022-09-29T03:14:07;20.33;;;13.85;;
12762;SDS011;6445;52.490;13.378;2022-09-29T03:16:33;26.58;;;17.98;;
12762;SDS011;6445;52.490;13.378;2022-09-29T03:18:59;15.75;;;11.50;;
12762;SDS011;6445;52.490;13.378;2022-09-29T03:21:24;17.13;;;11.93;;
12762;SDS011;6445;52.490;13.378;2022-09-29T03:23:49;15.45;;;10.73;;
12762;SDS011;6445;52.490;13.378;2022-09-29T03:26:15;15.15;;;10.70;;
12762;SDS011;6445;52.490;13.378;2022-09-29T03:28:40;17.17;;;11.70;;
12762;SDS011;6445;52.490;13.378;2022-09-29T03:31:07;17.52;;;11.52;;
12762;SDS011;6445;52.490;13.378;2022-09-29T03:33:34;20.90;;;11.90;;
12762;SDS011;6445;52.490;13.378;2022-09-29T03:36:00;18.00;;;11.60;;
12762;SDS011;6445;52.490;13.378;2022-09-29T03:38:27;16.05;;;11.35;;
12762;SDS011;6445;52.490;13.378;2022-09-29T03:40:52;17.70;;;11.00;;
12762;SDS011;6445;52.490;13.378;2022-09-29T03:43:18;15.85;;;11.23;;
12762;SDS011;6445;52.490;13.378;2022-09-29T03:45:47;16.77;;;11.35;;
12762;SDS011;6445;52.490;13.378;2022-09-29T03:48:13;15.88;;;11.45;;
12762;SDS011;6445;52.490;13.378;2022-09-29T03:50:39;15.95;;;11.15;;
12762;SDS011;6445;52.490;13.378;2022-09-29T03:53:04;16.92;;;11.93;;
12762;SDS011;6445;52.490;13.378;2022-09-29T03:55:30;15.10;;;11.05;;
12762;SDS011;6445;52.490;13.378;2022-09-29T03:57:55;15.52;;;11.38;;
12762;SDS011;6445;52.490;13.378;2022-09-29T04:00:20;17.85;;;12.07;;
12762;SDS011;6445;52.490;13.378;2022-09-29T04:02:45;17.52;;;11.90;;
12762;SDS011;6445;52.490;13.378;2022-09-29T04:05:10;16.85;;;11.75;;
12762;SDS011;6445;52.490;13.378;2022-09-29T04:07:36;16.40;;;12.13;;
12762;SDS011;6445;52.490;13.378;2022-09-29T04:10:01;17.85;;;12.45;;
12762;SDS011;6445;52.490;13.378;2022-09-29T04:12:27;20.48;;;13.10;;
12762;SDS011;6445;52.490;13.378;2022-09-29T04:14:52;17.15;;;12.35;;
12762;SDS011;6445;52.490;13.378;2022-09-29T04:17:18;19.90;;;13.07;;
12762;SDS011;6445;52.490;13.378;2022-09-29T04:19:43;21.38;;;12.82;;
12762;SDS011;6445;52.490;13.378;2022-09-29T04:22:08;16.85;;;12.30;;
12762;SDS011;6445;52.490;13.378;2022-09-29T04:24:34;17.38;;;11.82;;
12762;SDS011;6445;52.490;13.378;2022-09-29T04:27:02;18.95;;;12.68;;
12762;SDS011;6445;52.490;13.378;2022-09-29T04:29:27;17.15;;;12.63;;
12762;SDS011;6445;52.490;13.378;2022-09-29T04:31:53;17.77;;;11.88;;
12762;SDS011;6445;52.490;13.378;2022-09-29T04:34:18;18.17;;;11.73;;
12762;SDS011;6445;52.490;13.378;2022-09-29T04:36:44;18.27;;;13.15;;
12762;SDS011;6445;52.490;13.378;2022-09-29T04:39:09;19.00;;;12.48;;
12762;SDS011;6445;52.490;13.378;2022-09-29T04:41:35;18.55;;;12.57;;
12762;SDS011;6445;52.490;13.378;2022-09-29T04:44:03;19.33;;;12.23;;
12762;SDS011;6445;52.490;13.378;2022-09-29T04:46:30;20.40;;;13.05;;
12762;SDS011;6445;52.490;13.378;2022-09-29T04:48:55;19.45;;;13.13;;
12762;SDS011;6445;52.490;13.378;2022-09-29T04:51:20;19.85;;;13.10;;
12762;SDS011;6445;52.490;13.378;2022-09-29T04:53:45;19.08;;;13.57;;
12762;SDS011;6445;52.490;13.378;2022-09-29T04:56:11;19.85;;;12.57;;
12762;SDS011;6445;52.490;13.378;2022-09-29T04:58:36;20.05;;;13.43;;
12762;SDS011;6445;52.490;13.378;2022-09-29T05:01:05;17.45;;;12.18;;
12762;SDS011;6445;52.490;13.378;2022-09-29T05:03:31;21.60;;;12.60;;
12762;SDS011;6445;52.490;13.378;2022-09-29T05:05:57;18.63;;;12.65;;
12762;SDS011;6445;52.490;13.378;2022-09-29T05:08:22;17.75;;;12.45;;
12762;SDS011;6445;52.490;13.378;2022-09-29T05:10:47;17.60;;;12.48;;
12762;SDS011;6445;52.490;13.378;2022-09-29T05:13:15;33.55;;;23.15;;
12762;SDS011;6445;52.490;13.378;2022-09-29T05:15:40;18.92;;;12.80;;
12762;SDS011;6445;52.490;13.378;2022-09-29T05:18:05;16.95;;;12.27;;
12762;SDS011;6445;52.490;13.378;2022-09-29T05:20:30;19.63;;;12.93;;
12762;SDS011;6445;52.490;13.378;2022-09-29T05:22:57;19.48;;;12.52;;
12762;SDS011;6445;52.490;13.378;2022-09-29T05:25:23;16.75;;;12.52;;
12762;SDS011;6445;52.490;13.378;2022-09-29T05:27:49;23.75;;;13.30;;
12762;SDS011;6445;52.490;13.378;2022-09-29T05:30:14;17.75;;;12.65;;
12762;SDS011;6445;52.490;13.378;2022-09-29T05:32:39;18.40;;;11.80;;
12762;SDS011;6445;52.490;13.378;2022-09-29T05:35:07;16.67;;;11.32;;
12762;SDS011;6445;52.490;13.378;2022-09-29T05:37:33;17.40;;;12.48;;
12762;SDS011;6445;52.490;13.378;2022-09-29T05:39:58;18.23;;;13.05;;
12762;SDS011;6445;52.490;13.378;2022-09-29T05:42:23;16.25;;;12.07;;
12762;SDS011;6445;52.490;13.378;2022-09-29T05:44:49;21.15;;;13.65;;
12762;SDS011;6445;52.490;13.378;2022-09-29T05:47:15;17.52;;;12.13;;
12762;SDS011;6445;52.490;13.378;2022-09-29T05:49:40;24.20;;;17.13;;
12762;SDS011;6445;52.490;13.378;2022-09-29T05:52:06;29.75;;;18.90;;
12762;SDS011;6445;52.490;13.378;2022-09-29T05:54:31;45.75;;;16.10;;
12762;SDS011;6445;52.490;13.378;2022-09-29T05:56:56;23.20;;;13.30;;
12762;SDS011;6445;52.490;13.378;2022-09-29T05:59:22;33.00;;;13.77;;
12762;SDS011;6445;52.490;13.378;2022-09-29T06:01:47;17.20;;;11.50;;
12762;SDS011;6445;52.490;13.378;2022-09-29T06:04:12;18.95;;;12.20;;
12762;SDS011;6445;52.490;13.378;2022-09-29T06:06:37;19.02;;;11.73;;
12762;SDS011;6445;52.490;13.378;2022-09-29T06:09:04;18.98;;;12.60;;
12762;SDS011;6445;52.490;13.378;2022-09-29T06:11:30;16.10;;;11.98;;
12762;SDS011;6445;52.490;13.378;2022-09-29T06:13:58;23.17;;;12.57;;
12762;SDS011;6445;52.490;13.378;2022-09-29T06:16:26;22.88;;;12.45;;
12762;SDS011;6445;52.490;13.378;2022-09-29T06:18:52;18.70;;;12.70;;
12762;SDS011;6445;52.490;13.378;2022-09-29T06:21:19;17.55;;;12.77;;
12762;SDS011;6445;52.490;13.378;2022-09-29T06:23:47;19.73;;;13.05;;
12762;SDS011;6445;52.490;13.378;2022-09-29T06:26:13;18.73;;;12.55;;
12762;SDS011;6445;52.490;13.378;2022-09-29T06:28:40;23.67;;;16.90;;
12762;SDS011;6445;52.490;13.378;2022-09-29T06:31:10;97.40;;;58.03;;
12762;SDS011;6445;52.490;13.378;2022-09-29T06:33:37;18.15;;;12.57;;
12762;SDS011;6445;52.490;13.378;2022-09-29T06:36:03;19.17;;;13.07;;
12762;SDS011;6445;52.490;13.378;2022-09-29T06:38:51;17.17;;;12.05;;
12762;SDS011;6445;52.490;13.378;2022-09-29T06:41:16;19.55;;;12.40;;
12762;SDS011;6445;52.490;13.378;2022-09-29T06:43:41;17.38;;;11.88;;
12762;SDS011;6445;52.490;13.378;2022-09-29T06:46:06;20.33;;;13.27;;
12762;SDS011;6445;52.490;13.378;2022-09-29T06:48:32;20.05;;;13.25;;
12762;SDS011;6445;52.490;13.378;2022-09-29T06:50:57;19.98;;;13.02;;
12762;SDS011;6445;52.490;13.378;2022-09-29T06:53:22;21.52;;;13.80;;
12762;SDS011;6445;52.490;13.378;2022-09-29T06:55:54;21.10;;;13.35;;
12762;SDS011;6445;52.490;13.378;2022-09-29T06:58:25;19.85;;;14.05;;
12762;SDS011;6445;52.490;13.378;2022-09-29T07:00:50;20.35;;;14.52;;
12762;SDS011;6445;52.490;13.378;2022-09-29T07:03:16;19.38;;;13.07;;
12762;SDS011;6445;52.490;13.378;2022-09-29T07:05:41;19.05;;;13.02;;
12762;SDS011;6445;52.490;13.378;2022-09-29T07:08:07;20.00;;;13.60;;
12762;SDS011;6445;52.490;13.378;2022-09-29T07:10:32;19.65;;;13.40;;
12762;SDS011;6445;52.490;13.378;2022-09-29T07:12:58;20.80;;;14.20;;
12762;SDS011;6445;52.490;13.378;2022-09-29T07:15:23;20.55;;;14.13;;
12762;SDS011;6445;52.490;13.378;2022-09-29T07:17:55;25.60;;;14.32;;
12762;SDS011;6445;52.490;13.378;2022-09-29T07:20:21;20.08;;;14.07;;
12762;SDS011;6445;52.490;13.378;2022-09-29T07:22:47;22.25;;;14.40;;
12762;SDS011;6445;52.490;13.378;2022-09-29T07:25:12;20.80;;;13.32;;
12762;SDS011;6445;52.490;13.378;2022-09-29T07:27:37;22.30;;;14.20;;
12762;SDS011;6445;52.490;13.378;2022-09-29T07:30:03;21.45;;;13.57;;
12762;SDS011;6445;52.490;13.378;2022-09-29T07:32:29;22.27;;;14.32;;
12762;SDS011;6445;52.490;13.378;2022-09-29T07:34:56;21.10;;;14.07;;
12762;SDS011;6445;52.490;13.378;2022-09-29T07:37:21;22.90;;;15.70;;
12762;SDS011;6445;52.490;13.378;2022-09-29T07:39:46;22.95;;;15.23;;
12762;SDS011;6445;52.490;13.378;2022-09-29T07:42:12;21.27;;;14.43;;
12762;SDS011;6445;52.490;13.378;2022-09-29T07:44:37;21.95;;;15.13;;
12762;SDS011;6445;52.490;13.378;2022-09-29T07:47:02;33.45;;;22.25;;
12762;SDS011;6445;52.490;13.378;2022-09-29T07:49:27;21.67;;;14.85;;
12762;SDS011;6445;52.490;13.378;2022-09-29T07:51:53;24.02;;;15.70;;
12762;SDS011;6445;52.490;13.378;2022-09-29T07:54:18;21.73;;;14.25;;
12762;SDS011;6445;52.490;13.378;2022-09-29T07:56:43;22.60;;;15.07;;
12762;SDS011;6445;52.490;13.378;2022-09-29T07:59:09;22.60;;;15.65;;
12762;SDS011;6445;52.490;13.378;2022-09-29T08:01:35;23.83;;;15.70;;
12762;SDS011;6445;52.490;13.378;2022-09-29T08:04:00;22.67;;;15.45;;
12762;SDS011;6445;52.490;13.378;2022-09-29T08:06:26;25.55;;;15.45;;
12762;SDS011;6445;52.490;13.378;2022-09-29T08:08:52;23.48;;;15.85;;
12762;SDS011;6445;52.490;13.378;2022-09-29T08:11:19;24.33;;;15.70;;
12762;SDS011;6445;52.490;13.378;2022-09-29T08:13:49;22.17;;;15.25;;
12762;SDS011;6445;52.490;13.378;2022-09-29T08:16:15;23.27;;;15.68;;
12762;SDS011;6445;52.490;13.378;2022-09-29T08:18:41;23.50;;;15.60;;
12762;SDS011;6445;52.490;13.378;2022-09-29T08:21:07;22.13;;;14.73;;
12762;SDS011;6445;52.490;13.378;2022-09-29T08:23:36;21.65;;;15.27;;
12762;SDS011;6445;52.490;13.378;2022-09-29T08:26:04;22.52;;;14.93;;
12762;SDS011;6445;52.490;13.378;2022-09-29T08:28:32;21.50;;;15.60;;
12762;SDS011;6445;52.490;13.378;2022-09-29T08:31:08;23.02;;;16.08;;
12762;SDS011;6445;52.490;13.378;2022-09-29T08:33:35;21.05;;;13.88;;
12762;SDS011;6445;52.490;13.378;2022-09-29T08:36:02;20.73;;;15.05;;
12762;SDS011;6445;52.490;13.378;2022-09-29T08:38:30;20.55;;;15.30;;
12762;SDS011;6445;52.490;13.378;2022-09-29T08:40:56;20.35;;;14.32;;
12762;SDS011;6445;52.490;13.378;2022-09-29T08:43:27;20.27;;;14.52;;
12762;SDS011;6445;52.490;13.378;2022-09-29T08:45:59;19.90;;;14.38;;
12762;SDS011;6445;52.490;13.378;2022-09-29T08:48:34;19.88;;;14.02;;
12762;SDS011;6445;52.490;13.378;2022-09-29T08:51:04;20.00;;;14.50;;
12762;SDS011;6445;52.490;13.378;2022-09-29T08:53:33;18.60;;;13.80;;
12762;SDS011;6445;52.490;13.378;2022-09-29T08:56:08;18.55;;;13.45;;
12762;SDS011;6445;52.490;13.378;2022-09-29T08:58:39;20.58;;;13.60;;
12762;SDS011;6445;52.490;13.378;2022-09-29T09:01:20;17.55;;;12.63;;
12762;SDS011;6445;52.490;13.378;2022-09-29T09:04:21;18.25;;;13.48;;
12762;SDS011;6445;52.490;13.378;2022-09-29T09:07:13;17.52;;;13.70;;
12762;SDS011;6445;52.490;13.378;2022-09-29T09:12:34;16.60;;;12.88;;
12762;SDS011;6445;52.490;13.378;2022-09-29T09:18:03;19.90;;;13.95;;
12762;SDS011;6445;52.490;13.378;2022-09-29T09:20:32;16.65;;;13.05;;
12762;SDS011;6445;52.490;13.378;2022-09-29T09:23:06;17.48;;;12.90;;
12762;SDS011;6445;52.490;13.378;2022-09-29T09:25:48;18.70;;;12.70;;
12762;SDS011;6445;52.490;13.378;2022-09-29T09:28:21;19.00;;;12.27;;
12762;SDS011;6445;52.490;13.378;2022-09-29T09:31:04;16.60;;;12.30;;
12762;SDS011;6445;52.490;13.378;2022-09-29T09:36:36;16.65;;;11.77;;
12762;SDS011;6445;52.490;13.378;2022-09-29T09:41:55;14.98;;;11.05;;
12762;SDS011;6445;52.490;13.378;2022-09-29T09:44:28;15.35;;;10.63;;
12762;SDS011;6445;52.490;13.378;2022-09-29T09:47:20;14.05;;;10.38;;
12762;SDS011;6445;52.490;13.378;2022-09-29T09:49:50;11.23;;;9.30;;
12762;SDS011;6445;52.490;13.378;2022-09-29T09:52:20;15.55;;;11.07;;
12762;SDS011;6445;52.490;13.378;2022-09-29T09:55:04;13.20;;;10.13;;
12762;SDS011;6445;52.490;13.378;2022-09-29T10:03:32;14.93;;;9.82;;
12762;SDS011;6445;52.490;13.378;2022-09-29T10:05:58;12.27;;;9.27;;
12762;SDS011;6445;52.490;13.378;2022-09-29T10:08:24;12.10;;;9.70;;
12762;SDS011;6445;52.490;13.378;2022-09-29T10:10:53;12.93;;;9.90;;
12762;SDS011;6445;52.490;13.378;2022-09-29T10:13:19;11.70;;;9.13;;
12762;SDS011;6445;52.490;13.378;2022-09-29T10:15:52;11.63;;;8.77;;
12762;SDS011;6445;52.490;13.378;2022-09-29T10:18:22;11.15;;;8.82;;
12762;SDS011;6445;52.490;13.378;2022-09-29T10:20:53;11.65;;;9.38;;
12762;SDS011;6445;52.490;13.378;2022-09-29T10:23:19;12.45;;;9.50;;
12762;SDS011;6445;52.490;13.378;2022-09-29T10:25:50;11.43;;;8.63;;
12762;SDS011;6445;52.490;13.378;2022-09-29T10:28:18;11.82;;;8.98;;
12762;SDS011;6445;52.490;13.378;2022-09-29T10:30:44;10.10;;;7.93;;
12762;SDS011;6445;52.490;13.378;2022-09-29T10:33:12;9.80;;;7.78;;
12762;SDS011;6445;52.490;13.378;2022-09-29T10:35:41;9.70;;;8.07;;
12762;SDS011;6445;52.490;13.378;2022-09-29T10:38:24;9.05;;;7.80;;
12762;SDS011;6445;52.490;13.378;2022-09-29T10:40:54;8.68;;;7.75;;
12762;SDS011;6445;52.490;13.378;2022-09-29T10:43:30;8.60;;;6.57;;
12762;SDS011;6445;52.490;13.378;2022-09-29T10:45:59;9.45;;;6.60;;
12762;SDS011;6445;52.490;13.378;2022-09-29T10:48:25;7.20;;;6.18;;
12762;SDS011;6445;52.490;13.378;2022-09-29T10:56:01;7.30;;;6.00;;
12762;SDS011;6445;52.490;13.378;2022-09-29T10:58:36;8.82;;;6.20;;
12762;SDS011;6445;52.490;13.378;2022-09-29T11:01:08;7.40;;;6.28;;
12762;SDS011;6445;52.490;13.378;2022-09-29T11:03:40;6.70;;;5.40;;
12762;SDS011;6445;52.490;13.378;2022-09-29T11:06:12;7.57;;;6.00;;
12762;SDS011;6445;52.490;13.378;2022-09-29T11:13:58;6.38;;;5.38;;
12762;SDS011;6445;52.490;13.378;2022-09-29T11:16:34;6.00;;;5.30;;
12762;SDS011;6445;52.490;13.378;2022-09-29T11:19:03;5.97;;;5.20;;
12762;SDS011;6445;52.490;13.378;2022-09-29T11:21:40;5.57;;;4.70;;
12762;SDS011;6445;52.490;13.378;2022-09-29T11:30:15;6.75;;;5.60;;
12762;SDS011;6445;52.490;13.378;2022-09-29T11:35:40;7.13;;;4.78;;
12762;SDS011;6445;52.490;13.378;2022-09-29T11:38:26;6.07;;;5.00;;
12762;SDS011;6445;52.490;13.378;2022-09-29T11:41:12;7.57;;;5.30;;
12762;SDS011;6445;52.490;13.378;2022-09-29T11:43:59;4.95;;;4.45;;
12762;SDS011;6445;52.490;13.378;2022-09-29T11:52:15;5.35;;;4.78;;
12762;SDS011;6445;52.490;13.378;2022-09-29T11:55:00;6.40;;;5.55;;
12762;SDS011;6445;52.490;13.378;2022-09-29T12:00:45;6.63;;;5.07;;
12762;SDS011;6445;52.490;13.378;2022-09-29T12:03:45;8.30;;;5.40;;
12762;SDS011;6445;52.490;13.378;2022-09-29T12:06:32;9.55;;;5.60;;
12762;SDS011;6445;52.490;13.378;2022-09-29T12:09:04;7.93;;;5.10;;
12762;SDS011;6445;52.490;13.378;2022-09-29T12:17:33;5.70;;;4.70;;
12762;SDS011;6445;52.490;13.378;2022-09-29T12:20:04;7.97;;;5.30;;
12762;SDS011;6445;52.490;13.378;2022-09-29T12:22:38;5.28;;;4.78;;
12762;SDS011;6445;52.490;13.378;2022-09-29T12:25:04;6.68;;;5.65;;
12762;SDS011;6445;52.490;13.378;2022-09-29T12:27:37;4.57;;;3.90;;
12762;SDS011;6445;52.490;13.378;2022-09-29T12:30:20;5.45;;;4.03;;
12762;SDS011;6445;52.490;13.378;2022-09-29T12:32:51;50.03;;;36.92;;
12762;SDS011;6445;52.490;13.378;2022-09-29T12:35:33;11.07;;;8.93;;
12762;SDS011;6445;52.490;13.378;2022-09-29T12:38:13;5.30;;;4.00;;
12762;SDS011;6445;52.490;13.378;2022-09-29T12:40:43;4.18;;;3.78;;
12762;SDS011;6445;52.490;13.378;2022-09-29T12:46:09;5.47;;;4.10;;
12762;SDS011;6445;52.490;13.378;2022-09-29T12:48:49;4.80;;;4.22;;
12762;SDS011;6445;52.490;13.378;2022-09-29T12:51:35;4.57;;;3.30;;
12762;SDS011;6445;52.490;13.378;2022-09-29T12:54:08;5.25;;;4.00;;
12762;SDS011;6445;52.490;13.378;2022-09-29T12:56:46;4.85;;;3.72;;
12762;SDS011;6445;52.490;13.378;2022-09-29T13:02:16;4.15;;;3.72;;
12762;SDS011;6445;52.490;13.378;2022-09-29T13:05:05;5.55;;;3.70;;
12762;SDS011;6445;52.490;13.378;2022-09-29T13:13:50;5.45;;;3.70;;
12762;SDS011;6445;52.490;13.378;2022-09-29T13:22:34;4.53;;;4.03;;
12762;SDS011;6445;52.490;13.378;2022-09-29T13:25:16;5.78;;;3.72;;
12762;SDS011;6445;52.490;13.378;2022-09-29T13:27:47;4.65;;;3.90;;
12762;SDS011;6445;52.490;13.378;2022-09-29T13:32:49;5.57;;;4.05;;
12762;SDS011;6445;52.490;13.378;2022-09-29T13:35:24;5.10;;;3.63;;
12762;SDS011;6445;52.490;13.378;2022-09-29T13:37:53;4.20;;;3.80;;
12762;SDS011;6445;52.490;13.378;2022-09-29T13:40:27;4.47;;;3.17;;
12762;SDS011;6445;52.490;13.378;2022-09-29T13:42:54;4.45;;;3.28;;
12762;SDS011;6445;52.490;13.378;2022-09-29T13:47:51;4.35;;;2.80;;
12762;SDS011;6445;52.490;13.378;2022-09-29T14:00:53;2.65;;;2.38;;
12762;SDS011;6445;52.490;13.378;2022-09-29T14:03:32;3.00;;;2.40;;
12762;SDS011;6445;52.490;13.378;2022-09-29T14:06:12;4.70;;;2.35;;
12762;SDS011;6445;52.490;13.378;2022-09-29T14:09:02;2.40;;;2.17;;
12762;SDS011;6445;52.490;13.378;2022-09-29T14:11:38;2.28;;;1.92;;
12762;SDS011;6445;52.490;13.378;2022-09-29T14:14:20;3.30;;;2.00;;
12762;SDS011;6445;52.490;13.378;2022-09-29T14:19:36;2.17;;;1.95;;
12762;SDS011;6445;52.490;13.378;2022-09-29T14:27:45;3.97;;;2.33;;
12762;SDS011;6445;52.490;13.378;2022-09-29T14:41:32;2.33;;;1.63;;
12762;SDS011;6445;52.490;13.378;2022-09-29T14:50:34;2.42;;;1.70;;
12762;SDS011;6445;52.490;13.378;2022-09-29T14:56:31;1.88;;;1.77;;
12762;SDS011;6445;52.490;13.378;2022-09-29T15:08:02;2.05;;;1.85;;
12762;SDS011;6445;52.490;13.378;2022-09-29T15:10:42;2.60;;;2.13;;
12762;SDS011;6445;52.490;13.378;2022-09-29T15:15:58;2.10;;;1.92;;
12762;SDS011;6445;52.490;13.378;2022-09-29T15:27:39;3.42;;;2.17;;
12762;SDS011;6445;52.490;13.378;2022-09-29T15:30:12;3.13;;;2.50;;
12762;SDS011;6445;52.490;13.378;2022-09-29T15:32:46;2.35;;;2.15;;
12762;SDS011;6445;52.490;13.378;2022-09-29T15:35:24;3.67;;;2.65;;
12762;SDS011;6445;52.490;13.378;2022-09-29T15:40:15;2.90;;;2.47;;
12762;SDS011;6445;52.490;13.378;2022-09-29T15:42:42;2.40;;;2.10;;
12762;SDS011;6445;52.490;13.378;2022-09-29T15:45:08;3.13;;;2.25;;
12762;SDS011;6445;52.490;13.378;2022-09-29T15:47:42;2.90;;;2.40;;
12762;SDS011;6445;52.490;13.378;2022-09-29T15:50:17;4.15;;;2.70;;
12762;SDS011;6445;52.490;13.378;2022-09-29T15:52:49;3.42;;;2.58;;
12762;SDS011;6445;52.490;13.378;2022-09-29T15:55:18;2.55;;;2.15;;
12762;SDS011;6445;52.490;13.378;2022-09-29T15:57:46;3.03;;;2.08;;
12762;SDS011;6445;52.490;13.378;2022-09-29T16:02:45;3.45;;;3.10;;
12762;SDS011;6445;52.490;13.378;2022-09-29T16:05:17;2.97;;;2.35;;
12762;SDS011;6445;52.490;13.378;2022-09-29T16:07:48;3.90;;;2.70;;
12762;SDS011;6445;52.490;13.378;2022-09-29T16:10:27;3.85;;;2.40;;
12762;SDS011;6445;52.490;13.378;2022-09-29T16:12:59;2.67;;;2.45;;
12762;SDS011;6445;52.490;13.378;2022-09-29T16:15:34;3.85;;;2.08;;
12762;SDS011;6445;52.490;13.378;2022-09-29T16:18:07;4.80;;;2.45;;
12762;SDS011;6445;52.490;13.378;2022-09-29T16:20:35;2.30;;;2.10;;
12762;SDS011;6445;52.490;13.378;2022-09-29T16:23:04;4.55;;;2.78;;
12762;SDS011;6445;52.490;13.378;2022-09-29T16:25:31;4.03;;;2.63;;
12762;SDS011;6445;52.490;13.378;2022-09-29T16:27:58;4.25;;;3.28;;
12762;SDS011;6445;52.490;13.378;2022-09-29T16:30:35;5.03;;;3.42;;
12762;SDS011;6445;52.490;13.378;2022-09-29T16:33:14;8.38;;;5.88;;
12762;SDS011;6445;52.490;13.378;2022-09-29T16:38:18;4.10;;;3.03;;
12762;SDS011;6445;52.490;13.378;2022-09-29T16:40:49;5.20;;;3.45;;
12762;SDS011;6445;52.490;13.378;2022-09-29T16:45:55;4.72;;;3.53;;
12762;SDS011;6445;52.490;13.378;2022-09-29T16:48:23;7.30;;;3.63;;
12762;SDS011;6445;52.490;13.378;2022-09-29T16:50:55;5.82;;;3.75;;
12762;SDS011;6445;52.490;13.378;2022-09-29T16:53:32;7.05;;;5.05;;
12762;SDS011;6445;52.490;13.378;2022-09-29T16:56:02;4.30;;;3.63;;
12762;SDS011;6445;52.490;13.378;2022-09-29T16:58:31;10.15;;;6.65;;
12762;SDS011;6445;52.490;13.378;2022-09-29T17:00:57;5.85;;;4.10;;
12762;SDS011;6445;52.490;13.378;2022-09-29T17:03:22;5.72;;;3.85;;
12762;SDS011;6445;52.490;13.378;2022-09-29T17:05:47;5.10;;;3.85;;
12762;SDS011;6445;52.490;13.378;2022-09-29T17:08:23;5.00;;;4.00;;
12762;SDS011;6445;52.490;13.378;2022-09-29T17:10:51;6.13;;;4.00;;
12762;SDS011;6445;52.490;13.378;2022-09-29T17:13:18;4.10;;;3.65;;
12762;SDS011;6445;52.490;13.378;2022-09-29T17:15:44;5.20;;;4.25;;
12762;SDS011;6445;52.490;13.378;2022-09-29T17:18:12;4.70;;;4.20;;
12762;SDS011;6445;52.490;13.378;2022-09-29T17:20:38;7.18;;;4.47;;
12762;SDS011;6445;52.490;13.378;2022-09-29T17:23:04;5.38;;;4.28;;
12762;SDS011;6445;52.490;13.378;2022-09-29T17:25:30;5.90;;;4.70;;
12762;SDS011;6445;52.490;13.378;2022-09-29T17:27:56;5.50;;;4.80;;
12762;SDS011;6445;52.490;13.378;2022-09-29T17:30:38;7.32;;;4.97;;
12762;SDS011;6445;52.490;13.378;2022-09-29T17:33:05;4.47;;;4.03;;
12762;SDS011;6445;52.490;13.378;2022-09-29T17:35:32;14.15;;;10.57;;
12762;SDS011;6445;52.490;13.378;2022-09-29T17:38:00;6.63;;;4.95;;